Time;durP1;ratioP1;P1;durP2;ratioP2;P2;SDS_P1;SDS_P2;PMS_P1;PMS_P2;Temp;Humidity;BMP_temperature;BMP_pressure;BME280_temperature;BME280_humidity;BME280_pressure;Samples;Min_cycle;Max_cycle;Signal;HPM_P1;HPM_P2
2024/03/25 00:00:46;;;;;;;0.90;0.90;;;;;;;4.37;81.99;97780.31;6165231;23;20036;-90
2024/03/25 00:03:12;;;;;;;0.90;0.90;;;;;;;4.31;82.79;97777.41;6146653;23;20017;-90
2024/03/25 00:05:38;;;;;;;0.90;0.90;;;;;;;4.21;82.88;97786.72;6175071;23;20013;-90
2024/03/25 00:08:04;;;;;;;0.90;0.90;;;;;;;4.21;82.84;97784.09;6119175;23;20013;-92
2024/03/25 00:10:29;;;;;;;0.90;0.90;;;;;;;4.23;83.02;97781.53;6168089;23;20501;-92
2024/03/25 00:12:56;;;;;;;0.90;0.90;;;;;;;4.18;82.80;97789.28;6141998;23;20013;-90
2024/03/25 00:15:25;;;;;;;0.82;0.82;;;;;;;4.29;82.23;97782.66;6143586;23;20008;-91
2024/03/25 00:17:50;;;;;;;0.90;0.90;;;;;;;4.39;82.31;97786.53;6169126;23;20017;-90
2024/03/25 00:20:16;;;;;;;0.80;0.80;;;;;;;4.37;82.24;97780.31;6138365;23;20040;-90
2024/03/25 00:22:42;;;;;;;0.80;0.80;;;;;;;4.59;81.19;97782.00;6162867;23;20013;-91
2024/03/25 00:25:11;;;;;;;0.80;0.80;;;;;;;4.55;81.01;97778.38;6165341;23;20017;-91
2024/03/25 00:27:40;;;;;;;0.90;0.90;;;;;;;4.51;81.87;97780.84;6139891;23;20017;-91
2024/03/25 00:30:12;;;;;;;0.90;0.90;;;;;;;4.57;81.00;97776.66;6167012;23;20022;-90
2024/03/25 00:32:39;;;;;;;0.90;0.90;;;;;;;4.56;81.02;97773.97;6142758;23;20064;-91
2024/03/25 00:35:06;;;;;;;0.90;0.90;;;;;;;4.62;80.85;97766.28;6143574;23;20029;-90
2024/03/25 00:37:32;;;;;;;;;;;;;;;4.72;80.19;97771.03;6144485;23;20069;-89
2024/03/25 00:39:57;;;;;;;0.90;0.90;;;;;;;4.71;80.35;97766.63;6141378;23;19908;-90
2024/03/25 00:42:23;;;;;;;0.90;0.90;;;;;;;4.61;80.85;97764.47;6153435;23;20017;-91
2024/03/25 00:44:48;;;;;;;1.00;1.00;;;;;;;4.70;80.30;97759.53;6158794;23;19997;-90
2024/03/25 00:47:15;;;;;;;0.80;0.80;;;;;;;4.61;80.36;97761.84;6149835;23;20021;-89
2024/03/25 00:49:40;;;;;;;0.90;0.90;;;;;;;4.63;80.52;97768.06;6151873;23;20257;-89
2024/03/25 00:52:05;;;;;;;0.80;0.80;;;;;;;4.74;79.51;97764.06;6176749;23;20001;-90
2024/03/25 00:54:31;;;;;;;0.90;0.90;;;;;;;4.63;79.86;97763.69;6150960;23;19998;-90
2024/03/25 00:56:56;;;;;;;0.80;0.80;;;;;;;4.62;80.01;97761.88;6150589;23;20009;-89
2024/03/25 00:59:22;;;;;;;0.93;0.93;;;;;;;4.67;80.06;97767.34;6176612;23;19997;-89
2024/03/25 01:01:47;;;;;;;0.90;0.90;;;;;;;4.64;79.87;97760.19;6175537;23;20005;-89
2024/03/25 01:04:13;;;;;;;0.93;0.93;;;;;;;4.58;80.30;97775.81;6176755;23;20005;-89
2024/03/25 01:06:38;;;;;;;0.90;0.90;;;;;;;4.58;80.19;97767.00;6175938;23;20033;-89
2024/03/25 01:09:04;;;;;;;0.90;0.90;;;;;;;4.64;80.23;97761.94;6150508;23;20001;-89
2024/03/25 01:11:30;;;;;;;0.90;0.90;;;;;;;4.68;80.22;97769.13;6149436;23;20072;-90
2024/03/25 01:13:56;;;;;;;0.90;0.90;;;;;;;4.87;79.30;97761.03;6173563;23;20022;-89
2024/03/25 01:16:22;;;;;;;0.90;0.90;;;;;;;4.79;79.88;97761.59;6147425;23;20032;-91
2024/03/25 01:18:47;;;;;;;0.80;0.80;;;;;;;4.62;80.50;97764.53;6172760;23;20021;-90
2024/03/25 01:21:12;;;;;;;0.90;0.90;;;;;;;4.66;80.43;97754.97;6174516;23;20818;-90
2024/03/25 01:23:38;;;;;;;0.90;0.90;;;;;;;4.75;79.99;97755.31;6147900;23;20009;-89
2024/03/25 01:26:04;;;;;;;0.90;0.90;;;;;;;4.70;80.02;97751.63;6171560;23;20044;-90
2024/03/25 01:28:29;;;;;;;0.90;0.90;;;;;;;4.69;80.32;97751.53;6174235;23;20311;-90
2024/03/25 01:30:55;;;;;;;0.80;0.80;;;;;;;4.69;79.92;97756.81;6123826;23;20025;-90
2024/03/25 01:33:20;;;;;;;0.90;0.90;;;;;;;4.72;80.21;97754.31;6143152;23;20021;-91
2024/03/25 01:35:46;;;;;;;0.85;0.85;;;;;;;4.65;80.67;97753.19;6150784;23;20024;-90
2024/03/25 01:38:11;;;;;;;0.90;0.90;;;;;;;4.68;80.52;97755.03;6123403;23;20055;-90
2024/03/25 01:40:36;;;;;;;0.88;0.88;;;;;;;4.78;80.22;97754.50;6124161;23;20040;-91
2024/03/25 01:43:03;;;;;;;0.90;0.90;;;;;;;4.71;80.12;97752.50;6149765;23;20029;-90
2024/03/25 01:45:31;;;;;;;1.00;1.00;;;;;;;4.81;80.25;97755.53;6148088;23;20056;-90
2024/03/25 01:48:02;;;;;;;0.80;0.80;;;;;;;4.73;80.16;97756.09;6148536;23;20472;-92
2024/03/25 01:50:31;;;;;;;0.90;0.90;;;;;;;4.68;80.48;97752.38;6149590;23;20045;-92
2024/03/25 01:52:57;;;;;;;0.90;0.90;;;;;;;4.74;80.21;97753.50;6149719;23;20096;-91
2024/03/25 01:55:25;;;;;;;0.90;0.90;;;;;;;4.54;81.21;97752.78;6121804;23;20045;-90
2024/03/25 01:57:51;;;;;;;0.90;0.90;;;;;;;4.70;80.36;97750.72;6123188;23;20021;-91
2024/03/25 02:00:18;;;;;;;0.90;0.90;;;;;;;4.71;80.46;97752.50;6148203;23;20508;-90
2024/03/25 02:02:48;;;;;;;0.90;0.90;;;;;;;4.70;80.60;97756.00;6099557;23;20009;-91
2024/03/25 02:05:16;;;;;;;0.90;0.90;;;;;;;4.56;81.09;97750.22;6123231;23;20021;-92
2024/03/25 02:07:42;;;;;;;0.90;0.90;;;;;;;4.55;81.26;97748.38;6130795;23;20049;-91
2024/03/25 02:10:15;;;;;;;0.80;0.80;;;;;;;4.41;81.86;97755.84;6125004;23;20059;-91
2024/03/25 02:12:45;;;;;;;0.90;0.90;;;;;;;4.47;82.18;97749.88;6123122;23;20021;-91
2024/03/25 02:15:13;;;;;;;0.90;0.90;;;;;;;4.29;82.35;97758.88;6149850;23;20045;-91
2024/03/25 02:17:39;;;;;;;0.80;0.80;;;;;;;4.37;82.39;97753.91;6148171;23;20017;-91
2024/03/25 02:20:07;;;;;;;0.90;0.90;;;;;;;4.52;81.76;97759.75;6150290;23;20005;-91
2024/03/25 02:22:33;;;;;;;0.90;0.90;;;;;;;4.68;80.82;97752.38;6121487;23;20021;-92
2024/03/25 02:25:00;;;;;;;0.90;0.90;;;;;;;4.58;81.25;97751.16;6123417;23;20041;-89
2024/03/25 02:27:28;;;;;;;0.80;0.80;;;;;;;4.64;81.07;97754.00;6123494;23;20685;-92
2024/03/25 02:29:54;;;;;;;0.80;0.80;;;;;;;4.54;81.11;97757.16;6123367;23;20052;-90
2024/03/25 02:32:19;;;;;;;0.90;0.90;;;;;;;4.61;80.84;97751.28;6121035;23;20022;-91
2024/03/25 02:34:48;;;;;;;0.90;0.90;;;;;;;4.57;81.22;97750.25;6148295;23;20018;-92
2024/03/25 02:37:13;;;;;;;0.90;0.90;;;;;;;4.50;81.54;97747.31;6148491;23;20068;-90
2024/03/25 02:39:39;;;;;;;0.90;0.90;;;;;;;4.54;81.32;97746.59;6124321;23;20787;-90
2024/03/25 02:42:04;;;;;;;0.90;0.90;;;;;;;4.52;81.26;97746.56;6150502;23;20287;-92
2024/03/25 02:44:31;;;;;;;0.90;0.90;;;;;;;4.57;81.48;97749.34;6166804;23;20022;-92
2024/03/25 02:46:57;;;;;;;0.80;0.80;;;;;;;4.52;81.77;97748.28;6165756;23;20020;-91
2024/03/25 02:49:22;;;;;;;0.90;0.90;;;;;;;4.57;81.38;97755.53;6125116;23;20437;-92
2024/03/25 02:51:48;;;;;;;0.73;0.73;;;;;;;4.66;80.99;97754.97;6124822;23;20013;-92
2024/03/25 02:54:13;;;;;;;0.80;0.80;;;;;;;4.61;81.38;97760.09;6124470;23;20013;-91
2024/03/25 02:56:40;;;;;;;0.82;0.82;;;;;;;4.61;80.98;97756.56;6125156;23;20349;-92
2024/03/25 02:59:05;;;;;;;0.80;0.80;;;;;;;4.55;81.00;97766.88;6150115;23;20049;-92
2024/03/25 03:01:31;;;;;;;1.00;1.00;;;;;;;4.55;81.45;97761.59;6150365;23;20013;-92
2024/03/25 03:03:57;;;;;;;0.80;0.80;;;;;;;4.75;80.11;97755.31;6124979;23;20051;-91
2024/03/25 03:06:23;;;;;;;0.90;0.90;;;;;;;4.66;80.58;97760.25;6128558;23;20006;-92
2024/03/25 03:08:48;;;;;;;0.90;0.90;;;;;;;4.66;80.65;97754.97;6179847;23;20113;-90
2024/03/25 03:11:14;;;;;;;0.85;0.85;;;;;;;4.60;80.86;97757.41;6178130;23;20081;-91
2024/03/25 03:13:39;;;;;;;0.80;0.80;;;;;;;4.61;80.79;97762.75;6177434;23;20194;-89
2024/03/25 03:16:05;;;;;;;0.88;0.88;;;;;;;4.49;81.55;97758.72;6151128;23;20002;-89
2024/03/25 03:18:30;;;;;;;0.90;0.90;;;;;;;4.46;81.46;97759.53;6175884;23;20001;-88
2024/03/25 03:20:56;;;;;;;0.85;0.85;;;;;;;4.61;80.75;97753.91;6176405;23;20001;-89
2024/03/25 03:23:22;;;;;;;0.90;0.90;;;;;;;4.59;80.82;97755.59;6176630;23;20380;-90
2024/03/25 03:25:48;;;;;;;0.80;0.80;;;;;;;4.53;80.75;97753.63;6164254;23;20017;-89
2024/03/25 03:28:14;;;;;;;0.90;0.90;;;;;;;4.61;80.95;97746.88;6138565;23;20074;-90
2024/03/25 03:30:40;;;;;;;0.90;0.90;;;;;;;4.62;81.21;97748.69;6136679;23;20021;-91
2024/03/25 03:33:06;;;;;;;0.90;0.90;;;;;;;4.51;81.44;97746.50;6135106;23;20021;-90
2024/03/25 03:35:35;;;;;;;0.90;0.90;;;;;;;4.40;81.75;97750.47;6162622;23;20024;-91
2024/03/25 03:38:01;;;;;;;0.90;0.90;;;;;;;4.34;81.70;97735.31;6140892;23;20013;-89
2024/03/25 03:40:26;;;;;;;0.80;0.80;;;;;;;4.29;82.42;97737.78;6138937;23;20555;-91
2024/03/25 03:42:52;;;;;;;0.90;0.90;;;;;;;4.15;82.90;97740.72;6137533;23;20550;-91
2024/03/25 03:45:17;;;;;;;0.90;0.90;;;;;;;4.27;82.16;97733.28;6160550;23;20440;-90
2024/03/25 03:47:42;;;;;;;0.80;0.80;;;;;;;4.22;82.68;97740.16;6110491;23;20023;-91
2024/03/25 03:50:09;;;;;;;0.80;0.80;;;;;;;3.99;83.42;97739.25;6159851;23;20041;-89
2024/03/25 03:52:34;;;;;;;0.90;0.90;;;;;;;3.82;84.07;97747.41;6131456;23;20021;-90
2024/03/25 03:55:00;;;;;;;0.90;0.90;;;;;;;3.71;84.76;97739.91;6156015;23;20021;-90
2024/03/25 03:57:28;;;;;;;0.85;0.85;;;;;;;3.56;85.61;97742.84;6104938;23;20009;-92
2024/03/25 03:59:53;;;;;;;0.90;0.90;;;;;;;3.43;86.22;97746.69;6125992;23;20084;-90
2024/03/25 04:02:19;;;;;;;0.82;0.82;;;;;;;3.22;87.19;97752.00;6127101;23;20009;-92
2024/03/25 04:04:45;;;;;;;0.90;0.90;;;;;;;3.13;88.51;97748.97;6122854;23;20017;-91
2024/03/25 04:07:10;;;;;;;0.85;0.85;;;;;;;3.11;89.35;97755.00;6147740;23;20013;-89
2024/03/25 04:09:36;;;;;;;0.90;0.90;;;;;;;3.10;89.22;97754.09;6122877;23;20156;-92
2024/03/25 04:12:01;;;;;;;1.00;1.00;;;;;;;2.89;89.90;97754.09;6147536;23;20045;-91
2024/03/25 04:14:27;;;;;;;1.00;1.00;;;;;;;2.69;90.61;97757.63;6123385;23;20005;-89
2024/03/25 04:16:53;;;;;;;1.00;1.00;;;;;;;2.46;91.89;97767.13;6147967;23;20012;-91
2024/03/25 04:19:27;;;;;;;1.00;1.00;;;;;;;2.41;92.15;97766.00;6123057;23;20060;-90
2024/03/25 04:21:53;;;;;;;1.00;1.00;;;;;;;2.33;92.93;97762.13;6147796;23;20017;-92
2024/03/25 04:24:19;;;;;;;0.90;0.90;;;;;;;2.35;93.70;97763.09;6123848;23;20464;-91
2024/03/25 04:26:45;;;;;;;0.90;0.90;;;;;;;2.39;93.96;97762.41;6123852;23;20017;-91
2024/03/25 04:29:10;;;;;;;0.95;0.95;;;;;;;2.38;93.76;97768.50;6123911;23;20425;-90
2024/03/25 04:31:37;;;;;;;1.00;1.00;;;;;;;2.49;93.04;97765.53;6149612;23;20037;-92
2024/03/25 04:34:04;;;;;;;1.00;1.00;;;;;;;2.56;92.66;97756.16;6148416;23;20018;-91
2024/03/25 04:36:30;;;;;;;1.00;1.00;;;;;;;2.61;91.68;97764.25;6126947;23;20021;-91
2024/03/25 04:38:55;;;;;;;0.93;0.93;;;;;;;2.59;91.92;97764.22;6155546;23;20001;-90
2024/03/25 04:41:21;;;;;;;0.95;0.95;;;;;;;2.75;91.82;97760.50;6123932;23;20020;-92
2024/03/25 04:43:46;;;;;;;1.00;1.00;;;;;;;2.79;90.95;97762.44;6149135;23;20045;-91
2024/03/25 04:46:11;;;;;;;1.05;1.05;;;;;;;2.91;90.84;97765.59;6099048;23;20005;-91
2024/03/25 04:48:37;;;;;;;0.90;0.90;;;;;;;2.89;90.51;97761.13;6123581;23;20020;-93
2024/03/25 04:51:02;;;;;;;1.00;1.00;;;;;;;2.95;90.46;97759.63;6122760;23;20032;-91
2024/03/25 04:53:29;;;;;;;1.00;1.00;;;;;;;3.05;90.60;97759.19;6148015;23;20032;-91
2024/03/25 04:55:55;;;;;;;1.00;1.00;;;;;;;3.07;90.49;97762.81;6122597;23;20006;-91
2024/03/25 04:58:21;;;;;;;0.90;0.90;;;;;;;3.14;90.44;97753.41;6149542;23;20013;-90
2024/03/25 05:00:46;;;;;;;0.90;0.90;;;;;;;3.22;89.99;97757.28;6148054;23;20040;-91
2024/03/25 05:03:12;;;;;;;0.90;0.90;;;;;;;3.30;89.83;97757.56;6124751;23;20017;-91
2024/03/25 05:05:38;;;;;;;1.00;1.00;;;;;;;3.37;89.75;97758.75;6124279;23;20037;-93
2024/03/25 05:08:04;;;;;;;0.88;0.88;;;;;;;3.33;90.03;97757.72;6100214;23;20093;-90
2024/03/25 05:10:29;;;;;;;0.95;0.95;;;;;;;3.43;90.44;97765.16;6123980;23;20028;-92
2024/03/25 05:12:55;;;;;;;0.90;0.90;;;;;;;3.48;90.15;97765.34;6134817;23;20322;-89
2024/03/25 05:15:21;;;;;;;0.90;0.90;;;;;;;3.34;90.19;97765.66;6155405;23;20456;-90
2024/03/25 05:17:49;;;;;;;0.90;0.90;;;;;;;3.42;90.26;97771.28;6129517;23;20017;-92
2024/03/25 05:20:27;;;;;;;0.90;0.90;;;;;;;3.53;89.75;97769.06;6149666;23;20520;-90
2024/03/25 05:22:53;;;;;;;0.90;0.90;;;;;;;3.52;89.09;97765.53;6124033;23;20389;-89
2024/03/25 05:25:18;;;;;;;0.90;0.90;;;;;;;3.55;90.10;97775.31;6123521;23;20056;-90
2024/03/25 05:27:44;;;;;;;0.90;0.90;;;;;;;3.65;89.79;97766.94;6124077;23;20076;-91
2024/03/25 05:30:10;;;;;;;0.90;0.90;;;;;;;3.66;89.88;97770.47;6121907;23;20099;-92
2024/03/25 05:32:36;;;;;;;0.90;0.90;;;;;;;3.77;89.93;97774.44;6096712;23;20025;-91
2024/03/25 05:35:03;;;;;;;0.90;0.90;;;;;;;3.87;89.92;97771.31;6124042;23;20029;-93
2024/03/25 05:37:32;;;;;;;0.90;0.90;;;;;;;3.97;89.72;97777.88;6132693;23;20020;-91
2024/03/25 05:39:58;;;;;;;0.90;0.90;;;;;;;3.91;90.15;97777.63;6130808;23;20096;-89
2024/03/25 05:42:23;;;;;;;0.85;0.85;;;;;;;4.03;89.78;97786.94;6148067;23;20381;-90
2024/03/25 05:44:48;;;;;;;0.90;0.90;;;;;;;4.11;89.17;97782.84;6121852;23;20026;-90
2024/03/25 05:47:14;;;;;;;0.90;0.90;;;;;;;4.02;88.86;97787.75;6146143;23;20385;-90
2024/03/25 05:49:39;;;;;;;0.80;0.80;;;;;;;3.99;87.18;97787.66;6122402;23;20020;-90
2024/03/25 05:52:05;;;;;;;0.90;0.90;;;;;;;4.01;87.54;97793.88;6097406;23;20017;-91
2024/03/25 05:54:31;;;;;;;0.93;0.93;;;;;;;4.02;87.62;97790.41;6147013;23;20092;-92
2024/03/25 05:56:56;;;;;;;0.90;0.90;;;;;;;4.15;87.99;97791.78;6123038;23;20023;-91
2024/03/25 05:59:22;;;;;;;0.90;0.90;;;;;;;4.23;87.86;97789.47;6147274;23;20039;-91
2024/03/25 06:01:47;;;;;;;0.70;0.70;;;;;;;4.36;87.34;97787.34;6098287;23;20021;-88
2024/03/25 06:04:13;;;;;;;0.80;0.80;;;;;;;4.45;86.90;97788.50;6123082;23;20075;-88
2024/03/25 06:06:38;;;;;;;0.85;0.85;;;;;;;4.43;86.44;97792.84;6126500;23;20033;-89
2024/03/25 06:09:03;;;;;;;0.80;0.80;;;;;;;4.40;85.39;97790.09;6126793;23;20008;-91
2024/03/25 06:11:29;;;;;;;0.80;0.80;;;;;;;4.45;85.23;97781.47;6153996;23;20017;-90
2024/03/25 06:13:54;;;;;;;0.80;0.80;;;;;;;4.45;84.35;97785.88;6123643;23;20145;-90
2024/03/25 06:16:20;;;;;;;0.82;0.82;;;;;;;4.68;84.27;97790.28;6124533;23;20013;-90
2024/03/25 06:18:45;;;;;;;0.80;0.80;;;;;;;4.90;84.74;97786.69;6149980;23;20029;-91
2024/03/25 06:21:11;;;;;;;0.80;0.80;;;;;;;4.97;83.78;97785.13;6130754;23;20021;-91
2024/03/25 06:23:36;;;;;;;0.80;0.80;;;;;;;4.95;81.97;97790.38;6138149;23;20047;-89
2024/03/25 06:26:02;;;;;;;0.80;0.80;;;;;;;5.04;80.29;97793.34;6123786;23;20115;-90
2024/03/25 06:28:27;;;;;;;0.80;0.80;;;;;;;5.14;79.47;97792.81;6122992;23;20010;-89
2024/03/25 06:36:21;;;;;;;0.70;0.70;;;;;;;5.48;77.92;97777.22;6149762;23;20763;-90
2024/03/25 06:38:47;;;;;;;0.80;0.80;;;;;;;5.38;77.73;97782.19;6124031;23;20013;-90
2024/03/25 06:41:13;;;;;;;0.77;0.77;;;;;;;5.54;76.84;97783.59;6149125;23;20152;-91
2024/03/25 06:43:39;;;;;;;0.80;0.80;;;;;;;5.68;76.64;97783.16;6135884;23;20869;-92
2024/03/25 06:46:05;;;;;;;0.80;0.80;;;;;;;5.71;76.08;97773.59;6130028;23;20074;-91
2024/03/25 06:48:31;;;;;;;0.90;0.90;;;;;;;5.70;75.59;97777.09;6138037;23;20010;-92
2024/03/25 06:50:59;;;;;;;0.82;0.82;;;;;;;5.90;75.14;97770.69;6151289;23;20047;-92
2024/03/25 06:53:25;;;;;;;0.80;0.80;;;;;;;5.92;74.50;97786.63;6124987;23;20051;-92
2024/03/25 06:55:55;;;;;;;0.80;0.80;;;;;;;5.87;74.93;97786.47;6126618;23;20006;-90
2024/03/25 06:58:25;;;;;;;0.80;0.80;;;;;;;5.69;75.08;97791.16;6101931;23;20018;-90
2024/03/25 07:00:51;;;;;;;0.80;0.80;;;;;;;5.86;74.58;97787.31;6127391;23;20062;-91
2024/03/25 07:03:22;;;;;;;0.88;0.88;;;;;;;6.14;74.09;97796.16;6122245;23;20010;-92
2024/03/25 07:05:52;;;;;;;0.80;0.80;;;;;;;6.25;72.59;97789.44;6122417;23;20068;-91
2024/03/25 07:08:19;;;;;;;0.80;0.80;;;;;;;5.93;73.83;97791.06;6148862;23;20028;-89
2024/03/25 07:10:45;;;;;;;0.80;0.80;;;;;;;6.32;72.54;97788.75;6149465;23;20017;-92
2024/03/25 07:13:11;;;;;;;0.90;0.90;;;;;;;6.26;72.45;97790.34;6126298;23;20427;-92
2024/03/25 07:15:36;;;;;;;0.80;0.80;;;;;;;6.54;71.99;97797.38;6149532;23;20037;-91
2024/03/25 07:18:03;;;;;;;0.80;0.80;;;;;;;6.09;72.87;97792.47;6123498;23;20013;-91
2024/03/25 07:20:29;;;;;;;0.90;0.90;;;;;;;6.23;73.20;97795.53;6122194;23;20048;-91
2024/03/25 07:22:58;;;;;;;0.88;0.88;;;;;;;7.26;69.50;97792.34;6129908;23;20006;-90
2024/03/25 07:25:24;;;;;;;0.80;0.80;;;;;;;7.19;68.80;97795.72;6105870;23;20018;-91
2024/03/25 07:27:50;;;;;;;0.80;0.80;;;;;;;6.83;70.03;97803.53;6122584;23;20029;-89
2024/03/25 07:30:19;;;;;;;0.80;0.80;;;;;;;6.64;70.67;97808.28;6127037;23;20017;-91
2024/03/25 07:32:47;;;;;;;0.80;0.80;;;;;;;6.66;71.41;97808.34;6161363;23;20020;-90
2024/03/25 07:35:16;;;;;;;0.80;0.80;;;;;;;7.43;68.13;97804.31;6125747;23;20349;-90
2024/03/25 07:37:43;;;;;;;0.80;0.80;;;;;;;8.68;64.17;97794.94;6102754;23;20017;-91
2024/03/25 07:40:11;;;;;;;0.80;0.80;;;;;;;8.15;64.42;97792.84;6150228;23;20021;-90
2024/03/25 07:42:38;;;;;;;0.80;0.80;;;;;;;8.78;62.95;97786.28;6121525;23;20017;-91
2024/03/25 07:45:05;;;;;;;0.70;0.70;;;;;;;8.27;64.05;97788.66;6125254;23;20013;-90
2024/03/25 07:47:35;;;;;;;0.80;0.80;;;;;;;9.03;62.61;97786.78;6124715;23;20033;-90
2024/03/25 07:50:01;;;;;;;0.70;0.70;;;;;;;9.67;60.48;97786.22;6130886;23;20009;-88
2024/03/25 07:52:27;;;;;;;0.80;0.80;;;;;;;9.65;60.07;97777.31;6096654;23;20022;-89
2024/03/25 07:54:53;;;;;;;0.70;0.70;;;;;;;9.82;58.50;97774.03;6121665;23;20065;-88
2024/03/25 07:57:21;;;;;;;0.65;0.65;;;;;;;8.57;61.72;97780.50;6122936;23;20793;-88
2024/03/25 07:59:47;;;;;;;0.70;0.70;;;;;;;8.21;63.46;97792.97;6147403;23;20009;-89
2024/03/25 08:02:13;;;;;;;0.70;0.70;;;;;;;10.02;58.88;97772.59;6123986;23;20388;-90
2024/03/25 08:04:39;;;;;;;0.70;0.70;;;;;;;11.22;55.70;97776.03;6098850;23;20049;-88
2024/03/25 08:07:05;;;;;;;0.60;0.60;;;;;;;10.55;56.07;97779.63;6124832;23;20010;-90
2024/03/25 08:09:30;;;;;;;0.70;0.70;;;;;;;10.02;57.09;97777.94;6098236;23;20017;-89
2024/03/25 08:11:56;;;;;;;0.70;0.70;;;;;;;10.15;54.75;97782.56;6126419;23;20820;-89
2024/03/25 08:14:22;;;;;;;0.60;0.60;;;;;;;10.16;54.81;97780.81;6125021;23;20018;-90
2024/03/25 08:16:48;;;;;;;0.80;0.80;;;;;;;9.49;56.82;97783.25;6120813;23;20550;-89
2024/03/25 08:19:14;;;;;;;0.60;0.60;;;;;;;9.34;56.15;97791.84;6121639;23;20120;-88
2024/03/25 08:21:40;;;;;;;0.60;0.60;;;;;;;8.70;57.22;97790.53;6121363;23;20009;-88
2024/03/25 08:24:06;;;;;;;0.70;0.70;;;;;;;9.29;55.75;97782.84;6119313;23;20108;-88
2024/03/25 08:26:32;;;;;;;0.70;0.70;;;;;;;9.12;57.17;97792.28;6148735;23;20032;-89
2024/03/25 08:28:58;;;;;;;0.70;0.70;;;;;;;9.00;55.40;97796.47;6121195;23;20017;-89
2024/03/25 08:31:23;;;;;;;0.68;0.68;;;;;;;10.73;50.69;97780.78;6097946;23;20374;-88
2024/03/25 08:33:48;;;;;;;0.80;0.80;;;;;;;11.85;48.67;97776.69;6121016;23;20030;-87
2024/03/25 08:36:14;;;;;;;0.70;0.70;;;;;;;13.10;45.74;97761.41;6122416;23;20357;-88
2024/03/25 08:38:40;;;;;;;0.60;0.60;;;;;;;14.12;43.32;97760.69;6123665;23;20035;-89
2024/03/25 08:41:06;;;;;;;0.60;0.60;;;;;;;14.61;41.97;97754.38;6121681;23;20664;-88
2024/03/25 08:43:32;;;;;;;0.40;0.40;;;;;;;14.68;41.17;97750.78;6097245;23;20112;-90
2024/03/25 08:45:58;;;;;;;0.40;0.40;;;;;;;15.02;39.42;97743.50;6123989;23;20021;-89
2024/03/25 08:48:23;;;;;;;0.40;0.40;;;;;;;14.56;39.84;97753.50;6151508;23;20002;-87
2024/03/25 08:50:49;;;;;;;0.32;0.32;;;;;;;14.73;40.63;97750.78;6128042;23;20037;-86
2024/03/25 08:53:14;;;;;;;0.30;0.30;;;;;;;13.83;43.46;97743.69;6122208;23;20020;-89
2024/03/25 08:55:46;;;;;;;0.40;0.40;;;;;;;13.29;43.32;97740.06;6121717;23;20005;-88
2024/03/25 08:58:21;;;;;;;0.40;0.40;;;;;;;13.03;43.70;97740.84;6122061;23;20092;-89
2024/03/25 09:00:52;;;;;;;0.40;0.40;;;;;;;11.45;46.81;97749.56;6121466;23;20025;-88
2024/03/25 09:03:20;;;;;;;0.50;0.50;;;;;;;11.53;46.92;97749.63;6095644;23;20025;-88
2024/03/25 09:05:47;;;;;;;0.40;0.40;;;;;;;13.21;43.70;97739.09;6121228;23;20031;-87
2024/03/25 09:08:13;;;;;;;0.50;0.50;;;;;;;12.25;43.95;97734.19;6121296;23;20016;-88
2024/03/25 09:13:25;;;;;;;0.55;0.55;;;;;;;13.47;42.47;97726.72;6147585;23;20515;-88
2024/03/25 09:15:50;;;;;;;0.50;0.50;;;;;;;13.94;41.13;97719.56;6120787;23;20021;-89
2024/03/25 09:18:19;;;;;;;0.50;0.50;;;;;;;14.25;40.01;97712.38;6119586;23;20101;-89
2024/03/25 09:20:45;;;;;;;0.45;0.45;;;;;;;14.65;38.64;97705.16;6095969;23;20402;-88
2024/03/25 09:23:11;;;;;;;0.35;0.35;;;;;;;14.71;38.60;97704.22;6095758;23;20108;-88
2024/03/25 09:25:36;;;;;;;0.32;0.32;;;;;;;14.86;37.12;97709.56;6120533;23;20011;-88
2024/03/25 09:28:02;;;;;;;0.40;0.40;;;;;;;13.72;39.03;97711.53;6120574;23;20373;-88
2024/03/25 09:30:28;;;;;;;0.40;0.40;;;;;;;13.79;38.61;97710.63;6119413;23;20021;-89
2024/03/25 09:32:54;;;;;;;0.40;0.40;;;;;;;14.22;38.97;97699.84;6120748;23;20100;-88
2024/03/25 09:35:20;;;;;;;0.40;0.40;;;;;;;14.23;38.84;97696.31;6120692;23;20029;-89
2024/03/25 09:37:45;;;;;;;0.40;0.40;;;;;;;14.42;38.67;97694.47;6120759;23;20022;-88
2024/03/25 09:40:12;;;;;;;0.40;0.40;;;;;;;14.63;37.97;97694.44;6120749;23;20270;-88
2024/03/25 09:42:47;;;;;;;0.30;0.30;;;;;;;12.70;44.27;97701.47;6120684;23;20021;-90
2024/03/25 09:45:15;;;;;;;0.40;0.40;;;;;;;12.97;40.68;97691.72;6119896;23;20028;-89
2024/03/25 09:47:41;;;;;;;0.50;0.50;;;;;;;13.02;38.07;97693.53;6120969;23;20029;-88
2024/03/25 09:50:09;;;;;;;0.50;0.50;;;;;;;14.57;36.27;97681.03;6120901;23;20045;-90
2024/03/25 09:52:34;;;;;;;0.40;0.40;;;;;;;15.23;34.73;97682.47;6129039;23;20025;-91
2024/03/25 09:55:00;;;;;;;0.30;0.30;;;;;;;14.38;35.78;97673.91;6134875;23;20013;-90
2024/03/25 09:57:26;;;;;;;0.50;0.50;;;;;;;14.98;34.67;97673.69;6131953;23;20005;-90
2024/03/25 09:59:52;;;;;;;0.30;0.30;;;;;;;12.77;37.91;97670.25;6129407;23;20017;-89
2024/03/25 10:02:18;;;;;;;0.50;0.50;;;;;;;14.25;34.80;97670.34;6141407;23;19997;-88
2024/03/25 10:04:48;;;;;;;0.50;0.50;;;;;;;14.99;35.09;97664.72;6110471;23;20041;-91
2024/03/25 10:07:22;;;;;;;0.40;0.40;;;;;;;14.94;34.30;97650.41;6156594;23;20020;-90
2024/03/25 10:09:49;;;;;;;0.40;0.40;;;;;;;17.18;31.41;97645.53;6125653;23;20051;-89
2024/03/25 10:12:14;;;;;;;0.40;0.40;;;;;;;16.92;29.93;97643.22;6124020;23;20024;-90
2024/03/25 10:14:41;;;;;;;0.30;0.30;;;;;;;16.02;34.82;97648.75;6122444;23;20093;-89
2024/03/25 10:17:06;;;;;;;0.40;0.40;;;;;;;15.40;33.74;97646.53;6121530;23;20049;-90
2024/03/25 10:19:35;;;;;;;0.40;0.40;;;;;;;15.81;33.23;97641.75;6147654;23;20017;-88
2024/03/25 10:22:05;;;;;;;0.40;0.40;;;;;;;16.56;30.33;97630.19;6122456;23;20018;-90
2024/03/25 10:24:44;;;;;;;0.40;0.40;;;;;;;16.88;29.20;97637.91;6121448;23;20029;-90
2024/03/25 10:27:11;;;;;;;0.40;0.40;;;;;;;16.66;30.55;97627.34;6121643;23;20097;-90
2024/03/25 10:29:37;;;;;;;;;;;;;;;17.18;29.74;97625.78;6123098;23;20458;-91
2024/03/25 10:32:04;;;;;;;0.40;0.40;;;;;;;17.81;29.26;97611.31;6098716;23;19908;-90
2024/03/25 10:34:30;;;;;;;0.30;0.30;;;;;;;18.18;28.93;97600.75;6122141;23;20040;-90
2024/03/25 10:37:05;;;;;;;0.30;0.30;;;;;;;18.90;28.29;97592.06;6101202;23;20013;-92
2024/03/25 10:39:32;;;;;;;0.30;0.30;;;;;;;17.63;27.88;97599.91;6137127;23;20022;-91
2024/03/25 10:42:00;;;;;;;0.30;0.30;;;;;;;17.59;28.40;97584.69;6133017;23;20017;-93
2024/03/25 10:44:29;;;;;;;0.30;0.30;;;;;;;18.04;29.45;97582.09;6133347;23;20021;-90
2024/03/25 10:47:01;;;;;;;0.10;0.10;;;;;;;17.80;27.60;97583.44;6135572;23;20013;-89
2024/03/25 10:49:58;;;;;;;0.40;0.40;;;;;;;16.15;29.27;97584.03;6086627;23;20467;-89
2024/03/25 10:52:28;;;;;;;0.40;0.40;;;;;;;17.34;28.86;97577.91;6115766;23;20037;-89
2024/03/25 10:54:55;;;;;;;0.30;0.30;;;;;;;17.58;28.45;97577.53;6167134;23;20029;-91
2024/03/25 10:57:22;;;;;;;0.30;0.30;;;;;;;15.65;29.96;97589.91;6136086;23;20017;-91
2024/03/25 10:59:49;;;;;;;0.40;0.40;;;;;;;16.86;30.06;97577.75;6106751;23;20024;-92
2024/03/25 11:02:17;;;;;;;0.40;0.40;;;;;;;18.26;27.99;97574.50;6134659;23;20022;-89
2024/03/25 11:04:44;;;;;;;0.30;0.30;;;;;;;18.64;26.56;97567.41;6135023;23;20014;-91
2024/03/25 11:07:14;;;;;;;0.30;0.30;;;;;;;19.03;26.71;97579.16;6130594;23;20018;-91
2024/03/25 11:09:41;;;;;;;0.30;0.30;;;;;;;18.47;26.45;97575.84;6134190;23;20032;-94
2024/03/25 11:12:09;;;;;;;;;;;;;;;18.36;27.75;97573.38;6156627;23;20013;-90
2024/03/25 11:14:37;;;;;;;0.30;0.30;;;;;;;18.00;27.13;97569.56;6132400;23;20010;-92
2024/03/25 11:17:16;;;;;;;0.20;0.20;;;;;;;17.55;28.38;97561.38;6157384;23;20029;-91
2024/03/25 11:19:43;;;;;;;0.30;0.30;;;;;;;18.76;27.36;97561.75;6132144;23;20024;-91
2024/03/25 11:22:14;;;;;;;0.30;0.30;;;;;;;20.07;28.30;97552.19;6132593;23;20013;-93
2024/03/25 11:24:44;;;;;;;0.20;0.20;;;;;;;21.06;24.57;97533.94;6132593;23;20104;-91
2024/03/25 11:27:10;;;;;;;0.20;0.20;;;;;;;19.90;26.11;97538.25;6158465;23;20021;-91
2024/03/25 11:29:35;;;;;;;0.20;0.20;;;;;;;21.30;24.01;97538.56;6133179;23;20013;-93
2024/03/25 11:32:07;;;;;;;0.30;0.30;;;;;;;21.82;23.51;97527.81;6137032;23;20017;-91
2024/03/25 11:34:35;;;;;;;0.30;0.30;;;;;;;21.67;24.51;97512.94;6112570;23;20004;-91
2024/03/25 11:37:02;;;;;;;0.30;0.30;;;;;;;20.77;24.12;97516.78;6133105;23;20024;-90
2024/03/25 11:39:30;;;;;;;0.30;0.30;;;;;;;21.03;24.26;97518.66;6162376;23;20014;-92
2024/03/25 11:41:57;;;;;;;0.30;0.30;;;;;;;21.46;23.41;97518.19;6112813;23;20025;-92
2024/03/25 11:44:27;;;;;;;0.30;0.30;;;;;;;20.43;25.52;97508.75;6161831;23;20032;-92